Time;durP1;ratioP1;P1;durP2;ratioP2;P2;SDS_P1;SDS_P2;PMS_P1;PMS_P2;Temp;Humidity;BMP_temperature;BMP_pressure;BME280_temperature;BME280_humidity;BME280_pressure;Samples;Min_cycle;Max_cycle;Signal;HPM_P1;HPM_P2
2021/12/14 00:00:46;;;;;;;9.85;4.35;;;;;;;;;;5085841;28;20404;-57
2021/12/14 00:03:15;;;;;;;10.18;5.18;;;;;;;;;;5052876;28;20171;-57
2021/12/14 00:05:44;;;;;;;10.23;5.03;;;;;;;;;;5045948;28;20088;-55
2021/12/14 00:08:13;;;;;;;11.80;5.18;;;;;;;;;;5072484;28;20055;-57
2021/12/14 00:13:30;;;;;;;9.63;4.00;;;;;;;;;;5070768;28;20060;-57
2021/12/14 00:15:57;;;;;;;11.55;4.65;;;;;;;;;;5068248;28;20065;-57
2021/12/14 00:18:24;;;;;;;10.50;4.80;;;;;;;;;;5064419;28;20064;-58
2021/12/14 00:20:54;;;;;;;11.82;4.95;;;;;;;;;;5048915;28;20080;-57
2021/12/14 00:26:10;;;;;;;14.73;5.43;;;;;;;;;;5064306;28;20044;-57
2021/12/14 00:28:36;;;;;;;12.88;5.85;;;;;;;;;;5061497;28;20098;-57
2021/12/14 00:31:04;;;;;;;10.52;5.53;;;;;;;;;;5065195;28;20052;-57
2021/12/14 00:33:34;;;;;;;9.40;4.80;;;;;;;;;;5058464;28;20072;-58
2021/12/14 00:36:03;;;;;;;9.10;4.35;;;;;;;;;;5065899;28;20049;-58
2021/12/14 00:38:30;;;;;;;15.60;4.68;;;;;;;;;;5065265;28;20131;-58
2021/12/14 00:41:00;;;;;;;11.32;4.93;;;;;;;;;;5068606;28;20078;-55
2021/12/14 00:43:27;;;;;;;10.95;4.75;;;;;;;;;;5064998;28;20128;-57
2021/12/14 00:45:54;;;;;;;10.23;4.40;;;;;;;;;;5068361;28;20088;-57
2021/12/14 00:48:21;;;;;;;9.73;4.78;;;;;;;;;;5064928;28;20125;-57
2021/12/14 00:50:51;;;;;;;8.35;4.38;;;;;;;;;;5068927;28;20151;-57
2021/12/14 00:53:19;;;;;;;11.07;5.30;;;;;;;;;;5065074;28;20149;-59
2021/12/14 00:55:46;;;;;;;8.77;4.45;;;;;;;;;;5068566;28;20112;-55
2021/12/14 00:58:14;;;;;;;12.20;5.55;;;;;;;;;;5064243;28;20139;-57
2021/12/14 01:00:46;;;;;;;11.65;5.05;;;;;;;;;;5068147;28;20052;-56
2021/12/14 01:03:13;;;;;;;8.43;4.10;;;;;;;;;;5083050;28;20060;-57
2021/12/14 01:05:43;;;;;;;11.60;4.90;;;;;;;;;;5067045;28;20194;-57
2021/12/14 01:08:11;;;;;;;10.90;5.68;;;;;;;;;;5068647;28;20065;-57
2021/12/14 01:10:41;;;;;;;11.32;5.35;;;;;;;;;;5064222;28;20131;-57
2021/12/14 01:13:10;;;;;;;12.55;6.00;;;;;;;;;;5057698;28;20057;-57
2021/12/14 01:15:51;;;;;;;12.60;5.07;;;;;;;;;;5061611;28;20052;-57
2021/12/14 01:18:30;;;;;;;10.52;5.18;;;;;;;;;;5068157;28;20143;-58
2021/12/14 01:21:00;;;;;;;10.88;4.65;;;;;;;;;;5066754;28;20049;-56
2021/12/14 01:23:32;;;;;;;8.80;3.83;;;;;;;;;;5068295;28;20135;-58
2021/12/14 01:26:04;;;;;;;9.73;4.72;;;;;;;;;;5064115;28;20080;-57
2021/12/14 01:28:31;;;;;;;13.43;6.00;;;;;;;;;;5064319;28;20116;-55
2021/12/14 01:31:04;;;;;;;11.77;5.35;;;;;;;;;;5060851;28;20144;-57
2021/12/14 01:33:34;;;;;;;12.52;5.88;;;;;;;;;;5068080;28;20131;-57
2021/12/14 01:36:08;;;;;;;13.35;6.03;;;;;;;;;;5064173;28;20143;-57
2021/12/14 01:38:45;;;;;;;10.85;4.95;;;;;;;;;;5084120;28;20049;-57
2021/12/14 01:41:14;;;;;;;12.90;5.70;;;;;;;;;;5074178;28;20048;-58
2021/12/14 01:43:45;;;;;;;12.00;5.95;;;;;;;;;;5107553;28;20032;-57
2021/12/14 01:46:13;;;;;;;10.63;5.00;;;;;;;;;;5086645;28;20062;-57
2021/12/14 01:48:40;;;;;;;12.57;5.85;;;;;;;;;;5088048;28;20076;-57
2021/12/14 01:51:08;;;;;;;13.10;5.68;;;;;;;;;;5075235;28;20132;-57
2021/12/14 01:53:37;;;;;;;15.15;6.45;;;;;;;;;;5067357;28;20072;-58
2021/12/14 01:56:05;;;;;;;12.15;5.90;;;;;;;;;;5057143;28;20052;-57
2021/12/14 01:58:32;;;;;;;;;;;;;;;;;;5047728;28;20056;-57
2021/12/14 02:01:03;;;;;;;13.35;6.13;;;;;;;;;;5048046;28;19924;-58
2021/12/14 02:03:34;;;;;;;11.90;5.05;;;;;;;;;;5067083;28;20111;-57
2021/12/14 02:06:02;;;;;;;12.98;6.03;;;;;;;;;;5063287;28;20054;-57
2021/12/14 02:08:29;;;;;;;;;;;;;;;;;;5067650;28;20060;-56
2021/12/14 02:10:57;;;;;;;10.77;5.10;;;;;;;;;;5062562;28;19924;-57
2021/12/14 02:13:26;;;;;;;14.23;5.97;;;;;;;;;;5066245;28;20057;-57
2021/12/14 02:15:52;;;;;;;15.82;6.72;;;;;;;;;;5066112;28;20061;-57
2021/12/14 02:18:23;;;;;;;10.30;4.70;;;;;;;;;;5062999;28;20540;-57
2021/12/14 02:20:53;;;;;;;16.20;7.05;;;;;;;;;;5066355;28;20063;-57
2021/12/14 02:23:21;;;;;;;12.95;6.38;;;;;;;;;;5062661;28;20084;-57
2021/12/14 02:25:48;;;;;;;15.10;6.65;;;;;;;;;;5066982;28;20062;-56
2021/12/14 02:28:17;;;;;;;12.48;5.72;;;;;;;;;;5063030;28;20066;-53
2021/12/14 02:30:44;;;;;;;15.48;6.10;;;;;;;;;;5064820;28;20057;-57
2021/12/14 02:33:14;;;;;;;16.15;6.95;;;;;;;;;;5052063;28;20060;-56
2021/12/14 02:35:41;;;;;;;11.85;5.55;;;;;;;;;;5066799;28;20135;-57
2021/12/14 02:38:11;;;;;;;16.35;6.15;;;;;;;;;;5065555;28;20063;-57
2021/12/14 02:43:56;;;;;;;13.55;6.65;;;;;;;;;;5094999;27;20475;-56
2021/12/14 02:46:24;;;;;;;12.80;6.20;;;;;;;;;;5063701;28;20081;-57
2021/12/14 02:48:52;;;;;;;13.35;6.28;;;;;;;;;;5059532;28;20072;-57
2021/12/14 02:51:20;;;;;;;13.30;6.83;;;;;;;;;;5063481;28;20106;-57
2021/12/14 02:53:49;;;;;;;10.95;5.32;;;;;;;;;;5059345;28;21501;-56
2021/12/14 02:56:17;;;;;;;15.77;7.32;;;;;;;;;;5063398;28;20063;-57
2021/12/14 02:58:44;;;;;;;14.93;6.45;;;;;;;;;;5058902;28;20498;-56
2021/12/14 03:01:13;;;;;;;15.63;7.28;;;;;;;;;;5061128;28;20491;-57
2021/12/14 03:03:40;;;;;;;16.10;7.80;;;;;;;;;;5058408;28;20052;-57
2021/12/14 03:06:10;;;;;;;15.55;7.32;;;;;;;;;;5062292;28;20057;-57
2021/12/14 03:08:44;;;;;;;16.77;6.93;;;;;;;;;;5058110;28;20056;-57
2021/12/14 03:11:11;;;;;;;16.67;7.43;;;;;;;;;;5063189;28;20064;-57
2021/12/14 03:13:39;;;;;;;15.68;6.93;;;;;;;;;;5058909;28;20118;-57
2021/12/14 03:16:07;;;;;;;14.27;6.57;;;;;;;;;;5061844;28;20071;-56
2021/12/14 03:18:37;;;;;;;17.65;7.20;;;;;;;;;;5058840;28;20044;-57
2021/12/14 03:21:06;;;;;;;17.42;7.72;;;;;;;;;;5062087;28;20110;-57
2021/12/14 03:23:34;;;;;;;16.40;7.18;;;;;;;;;;5062243;28;20060;-57
2021/12/14 03:26:03;;;;;;;13.90;7.00;;;;;;;;;;5059013;28;20044;-57
2021/12/14 03:28:30;;;;;;;13.32;6.95;;;;;;;;;;5061840;28;20052;-58
2021/12/14 03:31:02;;;;;;;16.23;6.97;;;;;;;;;;5058531;28;20063;-57
2021/12/14 03:33:30;;;;;;;17.77;7.97;;;;;;;;;;5062390;28;20068;-57
2021/12/14 03:36:00;;;;;;;16.38;7.60;;;;;;;;;;5059322;28;20076;-56
2021/12/14 03:38:28;;;;;;;16.25;7.40;;;;;;;;;;5062172;28;20126;-57
2021/12/14 03:40:56;;;;;;;17.70;8.05;;;;;;;;;;5058020;28;20060;-57
2021/12/14 03:43:23;;;;;;;14.48;7.15;;;;;;;;;;5061255;28;20060;-57
2021/12/14 03:45:49;;;;;;;20.00;8.15;;;;;;;;;;5057970;28;20060;-56
2021/12/14 03:48:17;;;;;;;13.95;7.32;;;;;;;;;;5061771;28;20048;-57
2021/12/14 03:50:44;;;;;;;16.73;7.95;;;;;;;;;;5057718;28;20061;-56
2021/12/14 03:53:13;;;;;;;18.08;8.27;;;;;;;;;;5060280;28;20075;-57
2021/12/14 03:55:42;;;;;;;15.50;7.15;;;;;;;;;;5044739;28;20053;-56
2021/12/14 03:58:09;;;;;;;19.00;8.85;;;;;;;;;;5048917;28;20049;-55
2021/12/14 04:00:37;;;;;;;16.15;7.38;;;;;;;;;;5045051;28;20044;-57
2021/12/14 04:03:06;;;;;;;20.40;7.57;;;;;;;;;;5050007;28;20056;-56
2021/12/14 04:05:35;;;;;;;17.20;7.82;;;;;;;;;;5047114;28;20303;-55
2021/12/14 04:08:01;;;;;;;15.15;6.63;;;;;;;;;;5051672;28;20053;-57
2021/12/14 04:10:31;;;;;;;17.80;8.25;;;;;;;;;;5047949;28;20055;-55
2021/12/14 04:12:58;;;;;;;17.35;7.75;;;;;;;;;;5047557;28;20085;-57
2021/12/14 04:15:25;;;;;;;15.75;7.38;;;;;;;;;;5048452;28;20153;-54
2021/12/14 04:17:52;;;;;;;20.83;7.57;;;;;;;;;;5044844;28;20072;-57
2021/12/14 04:20:20;;;;;;;17.80;8.20;;;;;;;;;;5048254;28;20573;-58
2021/12/14 04:22:48;;;;;;;13.27;6.25;;;;;;;;;;5044157;28;20582;-58
2021/12/14 04:25:17;;;;;;;14.18;6.78;;;;;;;;;;5048039;28;20134;-59
2021/12/14 04:27:45;;;;;;;16.67;8.32;;;;;;;;;;5042744;28;20049;-58
2021/12/14 04:30:14;;;;;;;16.95;7.85;;;;;;;;;;5048025;28;20049;-57
2021/12/14 04:32:41;;;;;;;16.65;7.45;;;;;;;;;;5044055;28;20057;-59
2021/12/14 04:35:09;;;;;;;17.13;8.30;;;;;;;;;;5047462;28;20152;-57
2021/12/14 04:37:38;;;;;;;16.48;7.18;;;;;;;;;;5044194;28;20072;-58
2021/12/14 04:40:18;;;;;;;16.83;8.00;;;;;;;;;;5048087;28;20056;-58
2021/12/14 04:54:02;;;;;;;13.73;6.15;;;;;;;;;;5006072;28;20088;-57
2021/12/14 04:56:30;;;;;;;16.10;7.53;;;;;;;;;;5009645;28;20049;-56
2021/12/14 04:59:00;;;;;;;18.02;8.02;;;;;;;;;;5010118;28;20077;-58
2021/12/14 05:01:26;;;;;;;17.17;7.47;;;;;;;;;;5048612;28;20067;-59
2021/12/14 05:03:54;;;;;;;14.27;6.78;;;;;;;;;;5043738;28;20269;-59
2021/12/14 05:06:24;;;;;;;21.40;7.60;;;;;;;;;;5046153;28;20054;-59
2021/12/14 05:11:36;;;;;;;15.15;7.22;;;;;;;;;;5046983;28;20055;-56
2021/12/14 05:14:06;;;;;;;16.60;6.78;;;;;;;;;;5043295;28;20057;-57
2021/12/14 05:16:33;;;;;;;17.25;6.75;;;;;;;;;;5047095;28;20142;-58
2021/12/14 05:19:01;;;;;;;16.52;7.50;;;;;;;;;;5043626;28;20183;-57
2021/12/14 05:21:29;;;;;;;15.45;6.72;;;;;;;;;;5047338;28;20052;-58
2021/12/14 05:23:56;;;;;;;13.60;6.72;;;;;;;;;;5042916;28;20128;-58
2021/12/14 05:26:23;;;;;;;15.10;6.47;;;;;;;;;;5047669;28;20451;-58
2021/12/14 05:28:49;;;;;;;13.02;5.97;;;;;;;;;;5044253;28;20056;-59
2021/12/14 05:31:18;;;;;;;13.43;6.63;;;;;;;;;;5047143;28;20053;-59
2021/12/14 05:33:45;;;;;;;14.07;6.22;;;;;;;;;;5047639;28;20056;-58
2021/12/14 05:36:15;;;;;;;13.20;6.25;;;;;;;;;;5047358;28;20213;-59
2021/12/14 05:38:51;;;;;;;14.10;6.15;;;;;;;;;;5046675;28;20153;-58
2021/12/14 05:44:04;;;;;;;13.65;6.22;;;;;;;;;;5024186;28;20053;-58
2021/12/14 05:46:33;;;;;;;15.10;5.97;;;;;;;;;;5042882;28;20044;-57
2021/12/14 05:49:01;;;;;;;12.60;5.68;;;;;;;;;;5046597;28;20057;-58
2021/12/14 05:51:28;;;;;;;12.27;6.18;;;;;;;;;;5042691;28;20056;-58
2021/12/14 05:53:56;;;;;;;13.48;6.57;;;;;;;;;;5045842;28;20049;-59
2021/12/14 05:56:23;;;;;;;11.32;5.32;;;;;;;;;;5042728;28;20069;-56
2021/12/14 05:58:54;;;;;;;16.50;6.03;;;;;;;;;;5046181;28;20080;-58
2021/12/14 06:01:22;;;;;;;14.25;6.10;;;;;;;;;;5042448;28;20079;-58
2021/12/14 06:03:53;;;;;;;16.08;6.88;;;;;;;;;;5045505;28;20063;-58
2021/12/14 06:06:21;;;;;;;12.88;5.63;;;;;;;;;;5042006;28;20080;-57
2021/12/14 06:08:47;;;;;;;14.02;6.25;;;;;;;;;;5043805;28;20142;-58
2021/12/14 06:11:23;;;;;;;11.18;5.22;;;;;;;;;;5041568;28;20139;-57
2021/12/14 06:13:50;;;;;;;13.95;5.75;;;;;;;;;;5044920;28;20075;-59
2021/12/14 06:16:22;;;;;;;14.75;6.30;;;;;;;;;;5041235;28;20107;-58
2021/12/14 06:18:48;;;;;;;12.07;5.57;;;;;;;;;;5045121;28;20099;-58
2021/12/14 06:21:18;;;;;;;15.02;5.95;;;;;;;;;;5041612;28;20099;-58
2021/12/14 06:23:47;;;;;;;14.45;6.15;;;;;;;;;;5042526;28;20060;-57
2021/12/14 06:26:13;;;;;;;;;;;;;;;;;;5056916;28;20055;-59
2021/12/14 06:28:40;;;;;;;13.35;5.28;;;;;;;;;;5046761;28;19931;-58
2021/12/14 06:31:06;;;;;;;14.23;5.80;;;;;;;;;;5042018;28;20375;-56
2021/12/14 06:33:35;;;;;;;13.32;6.28;;;;;;;;;;5045004;28;20131;-58
2021/12/14 06:36:02;;;;;;;12.48;5.65;;;;;;;;;;5044363;28;20076;-58
2021/12/14 06:38:30;;;;;;;11.93;5.05;;;;;;;;;;5041183;28;20053;-53
2021/12/14 06:40:57;;;;;;;;;;;;;;;;;;5046151;28;20067;-56
2021/12/14 06:43:26;;;;;;;10.43;4.63;;;;;;;;;;5041229;28;20231;-59
2021/12/14 06:45:55;;;;;;;13.35;6.13;;;;;;;;;;5046296;28;20063;-56
2021/12/14 06:48:24;;;;;;;13.93;6.75;;;;;;;;;;5043590;28;20076;-58
2021/12/14 06:50:52;;;;;;;14.07;6.32;;;;;;;;;;5046671;28;20063;-57
2021/12/14 06:53:23;;;;;;;14.23;6.13;;;;;;;;;;5042469;28;20148;-58
2021/12/14 06:55:52;;;;;;;15.50;6.63;;;;;;;;;;5061181;28;20080;-59
2021/12/14 06:58:20;;;;;;;19.13;7.47;;;;;;;;;;5041951;28;20135;-58
2021/12/14 07:00:48;;;;;;;16.27;7.27;;;;;;;;;;5046787;28;20077;-59
2021/12/14 07:03:15;;;;;;;17.77;7.18;;;;;;;;;;5040857;28;20053;-58
2021/12/14 07:05:44;;;;;;;15.85;6.60;;;;;;;;;;5038605;28;20135;-59
2021/12/14 07:08:12;;;;;;;17.33;6.97;;;;;;;;;;5041418;28;20049;-59
2021/12/14 07:10:39;;;;;;;17.45;7.72;;;;;;;;;;5043935;28;20073;-59
2021/12/14 07:13:16;;;;;;;17.00;7.03;;;;;;;;;;5054503;28;20060;-57
2021/12/14 07:15:43;;;;;;;17.95;7.55;;;;;;;;;;5035585;28;20076;-58
2021/12/14 07:18:10;;;;;;;13.02;6.13;;;;;;;;;;5041474;28;20069;-58
2021/12/14 07:20:39;;;;;;;22.42;8.25;;;;;;;;;;5076678;28;20232;-59
2021/12/14 07:23:16;;;;;;;17.27;7.57;;;;;;;;;;5041129;28;20049;-59
2021/12/14 07:25:42;;;;;;;17.05;8.25;;;;;;;;;;5043941;28;20106;-59
2021/12/14 07:28:11;;;;;;;19.45;8.35;;;;;;;;;;5044024;28;20057;-58
2021/12/14 07:30:41;;;;;;;17.75;7.07;;;;;;;;;;5047206;28;20151;-58
2021/12/14 07:33:11;;;;;;;16.63;7.20;;;;;;;;;;5080196;28;20502;-58
2021/12/14 07:35:48;;;;;;;18.15;8.07;;;;;;;;;;5043307;28;20112;-57
2021/12/14 07:38:22;;;;;;;17.00;8.23;;;;;;;;;;5048566;28;20049;-58
2021/12/14 07:40:50;;;;;;;16.25;7.15;;;;;;;;;;5043155;28;20095;-58
2021/12/14 07:43:19;;;;;;;18.60;8.27;;;;;;;;;;5047926;28;20132;-57
2021/12/14 07:45:47;;;;;;;16.30;7.57;;;;;;;;;;5042987;28;20057;-58
2021/12/14 07:48:14;;;;;;;20.45;8.18;;;;;;;;;;5048099;28;20064;-59
2021/12/14 07:50:43;;;;;;;19.73;8.70;;;;;;;;;;5044107;28;20068;-58
2021/12/14 07:53:10;;;;;;;20.02;8.63;;;;;;;;;;5046724;28;20455;-58
2021/12/14 07:55:38;;;;;;;24.48;9.52;;;;;;;;;;5043607;28;20052;-58
2021/12/14 07:58:05;;;;;;;12.52;5.07;;;;;;;;;;5048470;28;20064;-56
2021/12/14 08:00:35;;;;;;;18.33;7.82;;;;;;;;;;5043688;28;20102;-58
2021/12/14 08:03:05;;;;;;;18.77;7.80;;;;;;;;;;5047574;28;20044;-59
2021/12/14 08:05:33;;;;;;;18.40;8.57;;;;;;;;;;5042828;28;20060;-58
2021/12/14 08:08:03;;;;;;;21.55;8.45;;;;;;;;;;5047824;28;20079;-57
2021/12/14 08:10:32;;;;;;;24.80;9.90;;;;;;;;;;5043722;28;20167;-58
2021/12/14 08:13:04;;;;;;;13.05;6.10;;;;;;;;;;5047817;28;20048;-59
2021/12/14 08:15:32;;;;;;;17.40;8.23;;;;;;;;;;5036708;28;20052;-56
2021/12/14 08:18:00;;;;;;;19.63;7.68;;;;;;;;;;5047997;28;20111;-59
2021/12/14 08:20:28;;;;;;;17.15;6.97;;;;;;;;;;5043096;28;20060;-58
2021/12/14 08:22:56;;;;;;;19.40;9.23;;;;;;;;;;5048236;28;20091;-58
2021/12/14 08:25:25;;;;;;;19.63;8.93;;;;;;;;;;5047398;28;20820;-59
2021/12/14 08:28:00;;;;;;;19.88;7.90;;;;;;;;;;5049437;28;20076;-58
2021/12/14 08:30:27;;;;;;;22.98;8.82;;;;;;;;;;5080146;28;20053;-59
2021/12/14 08:32:54;;;;;;;22.58;9.48;;;;;;;;;;5056850;28;20063;-59
2021/12/14 08:35:20;;;;;;;19.65;9.05;;;;;;;;;;5046944;28;20136;-60
2021/12/14 08:37:53;;;;;;;19.15;8.45;;;;;;;;;;5045323;28;20465;-59
2021/12/14 08:40:21;;;;;;;18.92;8.25;;;;;;;;;;5047876;28;20367;-59
2021/12/14 08:42:52;;;;;;;23.15;9.63;;;;;;;;;;5042799;28;20473;-58
2021/12/14 08:45:28;;;;;;;22.15;9.82;;;;;;;;;;5047005;28;20064;-58
2021/12/14 08:48:05;;;;;;;21.98;9.57;;;;;;;;;;5041576;28;20127;-55
2021/12/14 08:50:36;;;;;;;17.27;8.07;;;;;;;;;;5046864;28;20132;-58
2021/12/14 08:53:09;;;;;;;15.13;6.38;;;;;;;;;;5043995;28;20110;-58
2021/12/14 08:55:37;;;;;;;14.38;6.35;;;;;;;;;;5046879;28;20072;-59
2021/12/14 08:58:04;;;;;;;17.73;7.20;;;;;;;;;;5058132;28;20088;-59
2021/12/14 09:00:33;;;;;;;22.13;9.55;;;;;;;;;;5046276;28;20391;-58
2021/12/14 09:03:03;;;;;;;22.20;9.30;;;;;;;;;;5042401;28;20053;-59
2021/12/14 09:05:32;;;;;;;23.85;9.55;;;;;;;;;;5046404;28;20148;-58
2021/12/14 09:07:59;;;;;;;20.95;9.35;;;;;;;;;;5042565;28;20513;-58
2021/12/14 09:10:30;;;;;;;23.00;9.57;;;;;;;;;;5046509;28;20059;-58
2021/12/14 09:13:01;;;;;;;25.23;10.32;;;;;;;;;;5040295;28;20135;-59
2021/12/14 09:15:29;;;;;;;23.58;10.80;;;;;;;;;;5061461;28;20059;-59
2021/12/14 09:17:56;;;;;;;25.90;11.03;;;;;;;;;;5041442;28;20094;-59
2021/12/14 09:20:25;;;;;;;23.10;10.20;;;;;;;;;;5039214;28;20132;-59
2021/12/14 09:22:54;;;;;;;19.73;9.43;;;;;;;;;;5043128;28;20041;-58
2021/12/14 09:25:24;;;;;;;28.10;10.93;;;;;;;;;;5045857;28;20067;-58
2021/12/14 09:27:52;;;;;;;21.45;9.27;;;;;;;;;;5043826;28;20135;-57
2021/12/14 09:30:20;;;;;;;17.35;8.15;;;;;;;;;;5045452;28;20061;-58
2021/12/14 09:32:47;;;;;;;25.70;10.77;;;;;;;;;;5046254;28;20069;-58
2021/12/14 09:35:17;;;;;;;24.60;10.68;;;;;;;;;;5042289;28;20165;-56
2021/12/14 09:37:45;;;;;;;24.50;10.30;;;;;;;;;;5045159;28;20077;-57
2021/12/14 09:40:13;;;;;;;23.70;10.07;;;;;;;;;;5041642;28;20286;-57
2021/12/14 09:42:40;;;;;;;24.33;10.60;;;;;;;;;;5045203;28;20057;-56
2021/12/14 09:45:10;;;;;;;23.90;10.07;;;;;;;;;;5042030;28;20103;-58
2021/12/14 09:47:36;;;;;;;25.05;11.27;;;;;;;;;;5046294;28;20080;-57
2021/12/14 09:50:05;;;;;;;24.95;10.30;;;;;;;;;;5043083;28;20156;-57
2021/12/14 09:52:33;;;;;;;21.83;9.23;;;;;;;;;;5063087;28;20107;-57
2021/12/14 09:55:02;;;;;;;23.52;10.07;;;;;;;;;;5044144;28;20056;-57
2021/12/14 09:57:31;;;;;;;25.38;10.80;;;;;;;;;;5045584;28;20152;-58
2021/12/14 09:59:58;;;;;;;25.35;10.15;;;;;;;;;;5042103;28;20147;-59
2021/12/14 10:02:28;;;;;;;25.80;10.70;;;;;;;;;;5045910;28;20147;-57
2021/12/14 10:04:55;;;;;;;20.90;9.02;;;;;;;;;;5041332;28;20052;-57
2021/12/14 10:07:23;;;;;;;25.27;9.57;;;;;;;;;;5045616;28;20056;-54
2021/12/14 10:09:51;;;;;;;20.42;9.38;;;;;;;;;;5041377;28;20055;-57
2021/12/14 10:12:48;;;;;;;25.13;10.18;;;;;;;;;;5044157;28;20049;-58
2021/12/14 10:15:10;;;;;;;20.80;9.07;;;;;;;;;;5041170;28;20111;-57
2021/12/14 10:17:40;;;;;;;19.35;8.55;;;;;;;;;;5045051;28;20148;-57
2021/12/14 10:20:07;;;;;;;21.05;8.80;;;;;;;;;;5040992;28;20056;-58
2021/12/14 10:22:34;;;;;;;16.65;7.85;;;;;;;;;;5045021;28;20061;-57
2021/12/14 10:25:08;;;;;;;25.02;10.68;;;;;;;;;;5044785;28;20639;-57
2021/12/14 10:27:35;;;;;;;24.33;9.90;;;;;;;;;;5046956;28;20384;-57
2021/12/14 10:30:05;;;;;;;37.05;14.00;;;;;;;;;;5046791;28;20068;-58
2021/12/14 10:32:33;;;;;;;30.70;11.25;;;;;;;;;;5074114;28;20597;-56
2021/12/14 10:35:04;;;;;;;27.20;11.75;;;;;;;;;;5076104;28;20049;-59
2021/12/14 10:37:39;;;;;;;21.75;9.55;;;;;;;;;;5038793;28;20049;-57
2021/12/14 10:43:06;;;;;;;27.23;10.80;;;;;;;;;;5056179;28;20060;-57
2021/12/14 10:45:32;;;;;;;21.77;9.80;;;;;;;;;;5044841;28;20057;-57
2021/12/14 10:47:59;;;;;;;25.67;9.52;;;;;;;;;;5041060;28;20059;-57
2021/12/14 10:50:31;;;;;;;29.52;12.00;;;;;;;;;;5045667;28;20052;-56
2021/12/14 10:52:58;;;;;;;22.05;9.88;;;;;;;;;;5040681;28;20134;-56
2021/12/14 10:55:26;;;;;;;25.95;10.32;;;;;;;;;;5073226;28;20112;-57
2021/12/14 10:57:53;;;;;;;27.50;11.13;;;;;;;;;;5041376;28;20539;-57
2021/12/14 11:00:28;;;;;;;26.55;10.65;;;;;;;;;;5044072;28;20139;-57
2021/12/14 11:03:00;;;;;;;31.92;12.07;;;;;;;;;;5041346;28;20053;-58
2021/12/14 11:05:28;;;;;;;33.13;12.75;;;;;;;;;;5047730;28;20045;-57
2021/12/14 11:07:55;;;;;;;24.60;9.85;;;;;;;;;;5077357;28;20140;-57
2021/12/14 11:10:25;;;;;;;24.35;9.50;;;;;;;;;;5049361;28;20055;-58
2021/12/14 11:12:58;;;;;;;32.45;12.80;;;;;;;;;;5045087;28;20146;-57
2021/12/14 11:15:27;;;;;;;23.88;10.45;;;;;;;;;;5048645;28;20084;-57
2021/12/14 11:18:11;;;;;;;25.35;10.32;;;;;;;;;;5061541;28;20092;-57
2021/12/14 11:20:41;;;;;;;26.17;11.27;;;;;;;;;;5050505;28;20052;-58
2021/12/14 11:23:12;;;;;;;27.48;11.68;;;;;;;;;;5045199;28;20057;-57
2021/12/14 11:25:45;;;;;;;29.08;12.50;;;;;;;;;;5080426;28;20061;-57
2021/12/14 11:28:13;;;;;;;40.75;14.52;;;;;;;;;;5044724;28;20075;-58
2021/12/14 11:30:43;;;;;;;27.85;11.05;;;;;;;;;;5046873;28;20057;-57
2021/12/14 11:33:12;;;;;;;30.55;12.85;;;;;;;;;;5058419;28;20045;-57
2021/12/14 11:35:41;;;;;;;28.50;12.65;;;;;;;;;;5080852;28;20087;-58
2021/12/14 11:38:22;;;;;;;31.77;13.35;;;;;;;;;;5059274;28;20053;-58
2021/12/14 11:40:49;;;;;;;27.92;12.82;;;;;;;;;;5047204;28;20053;-55
2021/12/14 11:43:21;;;;;;;29.45;11.43;;;;;;;;;;5044665;28;20057;-58
2021/12/14 11:45:48;;;;;;;34.58;13.25;;;;;;;;;;5048815;28;20053;-57
2021/12/14 11:48:27;;;;;;;27.95;11.88;;;;;;;;;;5048321;28;20056;-57
2021/12/14 11:50:56;;;;;;;28.20;11.57;;;;;;;;;;5048370;28;20187;-58
2021/12/14 11:53:23;;;;;;;32.90;13.05;;;;;;;;;;5048019;28;20060;-58
2021/12/14 11:55:54;;;;;;;27.98;11.73;;;;;;;;;;5060760;28;20060;-58
2021/12/14 11:58:26;;;;;;;30.90;12.02;;;;;;;;;;5047427;28;20140;-57
2021/12/14 12:00:54;;;;;;;37.03;12.68;;;;;;;;;;5059173;28;20049;-57
2021/12/14 12:03:26;;;;;;;36.00;14.23;;;;;;;;;;5062965;28;20590;-57
2021/12/14 12:06:01;;;;;;;27.63;11.57;;;;;;;;;;5043779;28;20143;-56
2021/12/14 12:11:13;;;;;;;35.72;14.32;;;;;;;;;;5044500;28;20055;-57
2021/12/14 12:13:42;;;;;;;27.63;12.63;;;;;;;;;;5049337;28;20056;-57
2021/12/14 12:16:16;;;;;;;31.70;12.15;;;;;;;;;;5044622;28;20179;-58
2021/12/14 12:18:57;;;;;;;37.50;13.05;;;;;;;;;;5048858;28;20166;-57
2021/12/14 12:21:28;;;;;;;32.42;13.05;;;;;;;;;;5076134;28;20054;-57
2021/12/14 12:23:55;;;;;;;30.67;11.80;;;;;;;;;;5047459;28;20056;-57
2021/12/14 12:26:25;;;;;;;36.65;12.88;;;;;;;;;;5044411;28;20057;-58
2021/12/14 12:28:55;;;;;;;27.60;11.65;;;;;;;;;;5048009;28;20048;-58
2021/12/14 12:31:22;;;;;;;38.17;13.88;;;;;;;;;;5043526;28;20055;-58
2021/12/14 12:33:49;;;;;;;36.88;14.65;;;;;;;;;;5046986;28;20135;-57
2021/12/14 12:36:17;;;;;;;32.90;13.83;;;;;;;;;;5075707;28;20068;-58
2021/12/14 12:38:47;;;;;;;28.80;12.45;;;;;;;;;;5047867;28;20072;-57
2021/12/14 12:41:25;;;;;;;38.80;14.82;;;;;;;;;;5043327;28;20075;-58
2021/12/14 12:43:52;;;;;;;41.25;14.45;;;;;;;;;;5080445;28;20084;-58
2021/12/14 12:46:22;;;;;;;37.83;14.25;;;;;;;;;;5044755;28;20053;-58
2021/12/14 12:48:55;;;;;;;32.28;13.05;;;;;;;;;;5048855;28;20055;-58
2021/12/14 12:51:35;;;;;;;37.40;14.88;;;;;;;;;;5043636;28;20144;-57
2021/12/14 12:54:18;;;;;;;31.42;12.70;;;;;;;;;;5046502;28;20055;-57
2021/12/14 12:56:47;;;;;;;34.63;13.00;;;;;;;;;;5043151;28;20092;-57
2021/12/14 12:59:15;;;;;;;;;;;;;;;;;;5047464;28;20410;-57
2021/12/14 13:01:42;;;;;;;30.65;12.48;;;;;;;;;;5042422;28;19924;-57
2021/12/14 13:04:09;;;;;;;37.40;14.30;;;;;;;;;;5078510;28;20456;-57
2021/12/14 13:06:35;;;;;;;32.22;13.20;;;;;;;;;;5042905;28;20059;-57
2021/12/14 13:09:02;;;;;;;37.97;13.80;;;;;;;;;;5047157;28;20052;-57
2021/12/14 13:11:32;;;;;;;34.65;14.00;;;;;;;;;;5046607;28;20107;-58
2021/12/14 13:14:01;;;;;;;37.97;15.70;;;;;;;;;;5045170;28;20056;-57
2021/12/14 13:16:28;;;;;;;36.78;14.27;;;;;;;;;;5078437;28;20169;-58
2021/12/14 13:18:56;;;;;;;34.20;12.80;;;;;;;;;;5042437;28;20112;-57
2021/12/14 13:21:41;;;;;;;31.95;14.25;;;;;;;;;;5046404;28;20053;-58
2021/12/14 13:24:23;;;;;;;37.22;15.02;;;;;;;;;;5028581;28;20065;-57
2021/12/14 13:26:53;;;;;;;31.58;12.88;;;;;;;;;;5041697;28;20060;-57
2021/12/14 13:29:23;;;;;;;34.03;15.02;;;;;;;;;;5042279;28;20048;-57
2021/12/14 13:31:51;;;;;;;34.83;14.65;;;;;;;;;;5046587;28;20244;-57
2021/12/14 13:34:19;;;;;;;29.60;12.85;;;;;;;;;;5041798;28;20056;-57
2021/12/14 13:36:46;;;;;;;34.70;13.60;;;;;;;;;;5046448;28;20110;-57
2021/12/14 13:39:14;;;;;;;25.65;10.93;;;;;;;;;;5042206;28;20077;-56
2021/12/14 13:42:06;;;;;;;39.88;14.43;;;;;;;;;;5045104;28;20152;-56
2021/12/14 13:44:34;;;;;;;32.60;13.38;;;;;;;;;;5042735;28;20131;-57
2021/12/14 13:47:03;;;;;;;31.83;13.07;;;;;;;;;;5045563;28;20051;-57
2021/12/14 13:49:29;;;;;;;35.10;13.98;;;;;;;;;;5041793;28;20059;-57
2021/12/14 13:51:56;;;;;;;35.13;13.18;;;;;;;;;;5046097;28;20069;-57
2021/12/14 13:54:24;;;;;;;37.13;13.98;;;;;;;;;;5042533;28;20111;-57
2021/12/14 13:56:52;;;;;;;34.15;13.13;;;;;;;;;;5045949;28;20049;-57
2021/12/14 13:59:20;;;;;;;28.58;12.90;;;;;;;;;;5042126;28;20049;-57
2021/12/14 14:01:47;;;;;;;28.08;11.50;;;;;;;;;;5046319;28;20131;-57
2021/12/14 14:04:16;;;;;;;26.60;11.07;;;;;;;;;;5041964;28;20049;-57
2021/12/14 14:06:43;;;;;;;27.98;11.98;;;;;;;;;;5047779;28;20107;-58
2021/12/14 14:09:11;;;;;;;30.60;13.10;;;;;;;;;;5041476;28;20053;-58
2021/12/14 14:11:39;;;;;;;31.27;12.30;;;;;;;;;;5045957;28;20056;-57
2021/12/14 14:14:26;;;;;;;24.70;11.05;;;;;;;;;;5042231;28;20067;-57
2021/12/14 14:16:56;;;;;;;30.73;12.90;;;;;;;;;;5077917;28;20486;-58
2021/12/14 14:19:23;;;;;;;28.30;11.90;;;;;;;;;;5042515;28;20052;-58
2021/12/14 14:21:50;;;;;;;24.13;10.48;;;;;;;;;;5046030;28;20130;-57
2021/12/14 14:24:18;;;;;;;25.33;12.02;;;;;;;;;;5045047;28;20053;-57
2021/12/14 14:26:45;;;;;;;26.00;12.00;;;;;;;;;;5042575;28;20494;-57
2021/12/14 14:29:21;;;;;;;31.48;13.13;;;;;;;;;;5045342;28;20075;-57
2021/12/14 14:31:50;;;;;;;26.45;11.23;;;;;;;;;;5072705;28;20528;-58
2021/12/14 14:34:28;;;;;;;32.70;11.85;;;;;;;;;;5044846;28;20052;-57
2021/12/14 14:36:55;;;;;;;;;;;;;;;;;;5039642;28;20076;-56
2021/12/14 14:39:22;;;;;;;24.33;9.02;;;;;;;;;;5045214;28;19940;-57
2021/12/14 14:41:50;;;;;;;30.25;12.02;;;;;;;;;;5040742;28;20044;-57
2021/12/14 14:44:21;;;;;;;27.85;11.10;;;;;;;;;;5044862;28;20045;-57
2021/12/14 14:46:49;;;;;;;31.65;12.68;;;;;;;;;;5040098;28;20051;-57
2021/12/14 14:49:17;;;;;;;34.92;13.02;;;;;;;;;;5045001;28;20057;-57
2021/12/14 14:51:48;;;;;;;34.88;14.00;;;;;;;;;;5040894;28;20096;-57
2021/12/14 14:54:35;;;;;;;44.95;16.90;;;;;;;;;;5059691;28;20463;-57
2021/12/14 14:57:27;;;;;;;50.07;19.07;;;;;;;;;;5036168;28;20136;-56
2021/12/14 15:00:08;;;;;;;38.28;14.40;;;;;;;;;;5044825;28;20490;-57
2021/12/14 15:02:46;;;;;;;35.50;14.63;;;;;;;;;;5056141;28;20073;-57
2021/12/14 15:05:16;;;;;;;31.52;13.05;;;;;;;;;;5044756;28;20052;-60
2021/12/14 15:07:58;;;;;;;38.60;14.55;;;;;;;;;;5038699;28;20052;-60
2021/12/14 15:10:29;;;;;;;27.77;11.95;;;;;;;;;;5045464;28;20387;-59
2021/12/14 15:13:19;;;;;;;43.42;16.17;;;;;;;;;;5041168;28;20056;-59